Time;durP1;ratioP1;P1;durP2;ratioP2;P2;SDS_P1;SDS_P2;PMS_P1;PMS_P2;Temp;Humidity;BMP_temperature;BMP_pressure;BME280_temperature;BME280_humidity;BME280_pressure;Samples;Min_cycle;Max_cycle;Signal;HPM_P1;HPM_P2
2022/05/04 00:01:24;;;;;;;7.00;5.30;;;;;;;10.96;nan;98033.06;4974604;28;20223;-70
2022/05/04 00:03:50;;;;;;;5.87;5.27;;;;;;;10.98;nan;98037.13;4974566;28;20207;-70
2022/05/04 00:06:17;;;;;;;6.40;5.90;;;;;;;10.96;nan;98033.88;4974587;28;20204;-70
2022/05/04 00:08:43;;;;;;;6.40;5.90;;;;;;;10.99;nan;98027.28;4974291;28;20228;-70
2022/05/04 00:11:09;;;;;;;6.90;6.30;;;;;;;10.99;nan;98027.28;4974534;28;20215;-70
2022/05/04 00:13:36;;;;;;;7.23;5.80;;;;;;;10.98;nan;98024.88;4974530;28;20214;-70
2022/05/04 00:16:02;;;;;;;6.07;5.47;;;;;;;10.98;nan;98020.34;4974543;28;20212;-70
2022/05/04 00:18:29;;;;;;;10.87;6.33;;;;;;;11.00;nan;98013.78;4974350;28;20228;-70
2022/05/04 00:20:56;;;;;;;7.20;6.50;;;;;;;10.98;nan;98022.22;4974208;28;20675;-70
2022/05/04 00:23:22;;;;;;;6.77;6.00;;;;;;;10.96;nan;98015.25;4974442;28;20231;-70
2022/05/04 00:25:49;;;;;;;6.60;6.00;;;;;;;10.93;nan;98018.38;4974461;28;20208;-70
2022/05/04 00:28:16;;;;;;;7.30;6.60;;;;;;;10.87;nan;98013.13;4974048;28;20232;-70
2022/05/04 00:30:42;;;;;;;6.97;6.37;;;;;;;10.82;nan;98016.44;4974339;28;20219;-69
2022/05/04 00:33:09;;;;;;;7.40;6.70;;;;;;;10.78;nan;98014.44;4974327;28;20208;-70
2022/05/04 00:35:35;;;;;;;6.60;6.00;;;;;;;10.78;nan;98022.41;4974306;28;20216;-70
2022/05/04 00:38:02;;;;;;;6.63;6.03;;;;;;;10.75;nan;98025.50;4974214;28;20239;-70
2022/05/04 00:40:29;;;;;;;7.00;6.40;;;;;;;10.72;nan;98023.28;4975946;28;20219;-70
2022/05/04 00:42:55;;;;;;;7.27;6.40;;;;;;;10.65;nan;98014.59;4977634;28;20212;-70
2022/05/04 00:45:22;;;;;;;7.33;6.53;;;;;;;10.68;nan;98014.16;4977870;28;20209;-70
2022/05/04 00:47:48;;;;;;;7.20;6.13;;;;;;;10.63;nan;98027.25;4977435;28;20234;-69
2022/05/04 00:50:14;;;;;;;6.40;5.90;;;;;;;10.65;nan;98014.59;4977484;28;20208;-70
2022/05/04 00:52:44;;;;;;;6.73;6.13;;;;;;;10.59;nan;98020.78;4977749;28;20282;-70
2022/05/04 00:55:12;;;;;;;7.33;6.43;;;;;;;10.58;nan;98013.81;4977742;28;20208;-70
2022/05/04 01:00:27;;;;;;;8.23;6.30;;;;;;;10.43;nan;98006.22;4977496;28;20674;-70
2022/05/04 01:02:53;;;;;;;7.17;6.57;;;;;;;10.43;nan;98008.88;4977591;28;20208;-69
2022/05/04 01:05:20;;;;;;;7.57;6.60;;;;;;;10.41;nan;98010.13;4977497;28;20214;-69
2022/05/04 01:07:47;;;;;;;8.17;6.67;;;;;;;10.51;nan;98005.13;4977433;28;20224;-69
2022/05/04 01:10:15;;;;;;;7.03;6.43;;;;;;;10.51;nan;97997.94;4977487;28;20263;-70
2022/05/04 01:12:53;;;;;;;6.87;6.33;;;;;;;10.32;nan;98008.78;4977395;28;20212;-69
2022/05/04 01:15:22;;;;;;;7.53;6.77;;;;;;;10.34;nan;98017.34;4977069;28;20214;-70
2022/05/04 01:17:49;;;;;;;6.87;6.33;;;;;;;10.36;nan;98009.97;4977206;28;20243;-70
2022/05/04 01:20:16;;;;;;;6.73;6.23;;;;;;;10.36;nan;98009.97;4976959;28;20686;-69
2022/05/04 01:22:43;;;;;;;7.17;6.50;;;;;;;10.36;nan;98010.75;4977776;28;20211;-69
2022/05/04 01:25:11;;;;;;;7.00;6.40;;;;;;;10.28;nan;98011.03;4976905;28;20292;-69
2022/05/04 01:27:37;;;;;;;6.90;6.20;;;;;;;10.34;nan;98026.13;4977086;28;20238;-70
2022/05/04 01:30:05;;;;;;;7.00;6.40;;;;;;;10.32;nan;98019.41;4977061;28;20211;-69
2022/05/04 01:32:32;;;;;;;6.80;6.20;;;;;;;10.26;nan;98017.59;4977035;28;20208;-70
2022/05/04 01:34:59;;;;;;;8.97;7.60;;;;;;;10.21;nan;98020.09;4977009;28;20208;-70
2022/05/04 01:37:26;;;;;;;9.00;7.53;;;;;;;10.20;nan;98023.78;4976411;28;20711;-70
2022/05/04 01:39:52;;;;;;;8.17;7.17;;;;;;;10.22;nan;98024.38;4976915;28;20207;-70
2022/05/04 01:42:23;;;;;;;8.20;7.30;;;;;;;10.25;nan;98029.25;4976860;28;20208;-70
2022/05/04 01:44:50;;;;;;;7.67;6.90;;;;;;;10.25;nan;98023.94;4976825;28;20196;-69
2022/05/04 01:47:16;;;;;;;7.87;7.00;;;;;;;10.24;nan;98023.16;4976555;28;20330;-70
2022/05/04 01:49:43;;;;;;;8.43;7.03;;;;;;;10.23;nan;98029.47;4976681;28;20535;-69
2022/05/04 01:52:09;;;;;;;8.70;7.20;;;;;;;10.23;nan;98031.34;4976685;28;20599;-70
2022/05/04 01:54:36;;;;;;;6.60;6.00;;;;;;;10.33;nan;98024.47;4976374;28;20667;-70
2022/05/04 01:57:02;;;;;;;7.60;6.90;;;;;;;10.47;nan;98033.16;4976603;28;20265;-70
2022/05/04 01:59:28;;;;;;;6.60;6.00;;;;;;;10.50;nan;98032.72;4976464;28;20228;-69
2022/05/04 02:01:55;;;;;;;7.10;6.50;;;;;;;10.35;nan;98035.72;4976474;28;20232;-69
2022/05/04 02:04:22;;;;;;;7.47;6.80;;;;;;;10.28;nan;98039.47;4976516;28;20585;-70
2022/05/04 02:06:50;;;;;;;7.13;6.43;;;;;;;10.30;nan;98037.38;4976349;28;20214;-69
2022/05/04 02:09:17;;;;;;;8.03;7.33;;;;;;;10.31;nan;98028.38;4976375;28;20208;-69
2022/05/04 02:11:43;;;;;;;7.27;6.57;;;;;;;10.40;nan;98027.91;4976321;28;20331;-69
2022/05/04 02:14:09;;;;;;;7.70;6.97;;;;;;;10.43;nan;98026.66;4976249;28;20214;-70
2022/05/04 02:16:36;;;;;;;7.03;6.53;;;;;;;10.35;nan;98032.22;4976161;28;20218;-70
2022/05/04 02:19:02;;;;;;;7.00;6.30;;;;;;;10.36;nan;98031.22;4976016;28;20235;-70
2022/05/04 02:21:29;;;;;;;7.57;6.87;;;;;;;10.41;nan;98028.72;4976071;28;20204;-69
2022/05/04 02:23:55;;;;;;;7.77;7.07;;;;;;;10.47;nan;98025.19;4976029;28;20212;-70
2022/05/04 02:26:22;;;;;;;6.97;6.47;;;;;;;10.47;nan;98020.69;4975984;28;20208;-69
2022/05/04 02:28:48;;;;;;;7.33;6.63;;;;;;;10.44;nan;98017.63;4975898;28;20227;-70
2022/05/04 02:31:14;;;;;;;7.67;6.97;;;;;;;10.44;nan;98022.97;4975891;28;20210;-70
2022/05/04 02:33:42;;;;;;;7.70;6.90;;;;;;;10.45;nan;98025.41;4975901;28;20212;-70
2022/05/04 02:38:52;;;;;;;7.07;6.43;;;;;;;10.42;nan;98030.34;4975469;28;20222;-70
2022/05/04 02:41:19;;;;;;;7.10;6.53;;;;;;;10.51;nan;98031.69;4975440;28;20223;-70
2022/05/04 02:43:45;;;;;;;7.83;7.00;;;;;;;10.41;nan;98024.22;4975351;28;20208;-70
2022/05/04 02:46:14;;;;;;;8.10;7.40;;;;;;;10.40;nan;98024.41;4976408;28;20226;-70
2022/05/04 02:48:40;;;;;;;7.27;6.57;;;;;;;10.41;nan;98031.38;4975220;28;20240;-69
2022/05/04 02:51:06;;;;;;;6.97;6.40;;;;;;;10.36;nan;98031.22;4975548;28;20208;-70
2022/05/04 02:53:33;;;;;;;7.83;7.07;;;;;;;10.36;nan;98025.91;4975426;28;20578;-70
2022/05/04 02:55:59;;;;;;;8.00;6.87;;;;;;;10.37;nan;98022.22;4975464;28;20207;-69
2022/05/04 02:58:25;;;;;;;8.00;7.30;;;;;;;10.36;nan;98017.94;4975294;28;20224;-70
2022/05/04 03:00:52;;;;;;;7.97;7.17;;;;;;;10.37;nan;98024.88;4975082;28;20234;-69
2022/05/04 03:03:18;;;;;;;7.83;7.13;;;;;;;10.45;nan;98029.91;4974561;28;20686;-69
2022/05/04 03:05:44;;;;;;;7.97;7.20;;;;;;;10.42;nan;98025.81;4976030;28;20212;-70
2022/05/04 03:08:11;;;;;;;7.27;6.57;;;;;;;10.43;nan;98026.66;4975107;28;20561;-69
2022/05/04 03:13:18;;;;;;;8.63;7.07;;;;;;;10.45;nan;98022.75;4974714;28;20630;-70
2022/05/04 03:15:44;;;;;;;7.70;7.00;;;;;;;10.50;nan;98027.41;4975106;28;20230;-69
2022/05/04 03:18:10;;;;;;;7.77;6.97;;;;;;;10.55;nan;98023.03;4974950;28;20238;-70
2022/05/04 03:20:37;;;;;;;7.47;6.77;;;;;;;10.61;nan;98016.06;4975025;28;20208;-70
2022/05/04 03:23:03;;;;;;;8.53;7.43;;;;;;;10.61;nan;98022.19;4975029;28;20215;-70
2022/05/04 03:25:29;;;;;;;8.30;7.60;;;;;;;10.62;nan;98015.00;4974995;28;20208;-69
2022/05/04 03:27:56;;;;;;;7.77;6.97;;;;;;;10.61;nan;98018.72;4974878;28;20224;-70
2022/05/04 03:30:22;;;;;;;7.83;7.07;;;;;;;10.63;nan;98016.63;4974989;28;20215;-69
2022/05/04 03:32:48;;;;;;;8.57;6.80;;;;;;;10.65;nan;98025.22;4974880;28;20212;-70
2022/05/04 03:35:15;;;;;;;9.87;7.00;;;;;;;10.66;nan;98024.19;4974703;28;20568;-70
2022/05/04 03:37:41;;;;;;;10.00;7.40;;;;;;;10.66;nan;98021.50;4974422;28;20749;-70
2022/05/04 03:40:10;;;;;;;8.70;7.47;;;;;;;10.69;nan;98021.09;4974321;28;20595;-70
2022/05/04 03:42:36;;;;;;;7.73;6.93;;;;;;;10.69;nan;98018.44;4974624;28;20315;-70
2022/05/04 03:45:03;;;;;;;7.47;6.77;;;;;;;10.66;nan;98016.19;4974645;28;20208;-69
2022/05/04 03:47:29;;;;;;;7.57;6.87;;;;;;;10.70;nan;98020.03;4974438;28;20242;-70
2022/05/04 03:49:55;;;;;;;7.67;7.07;;;;;;;10.69;nan;98016.56;4974560;28;20219;-70
2022/05/04 03:52:22;;;;;;;8.27;7.47;;;;;;;10.64;nan;98021.72;4974607;28;20635;-70
2022/05/04 03:54:48;;;;;;;8.20;7.50;;;;;;;10.72;nan;98017.97;4974533;28;20266;-69
2022/05/04 03:57:14;;;;;;;8.80;8.00;;;;;;;10.72;nan;98017.97;4974383;28;20227;-70
2022/05/04 03:59:41;;;;;;;8.43;7.63;;;;;;;10.72;nan;98013.47;4974418;28;20231;-69
2022/05/04 04:02:08;;;;;;;11.03;8.23;;;;;;;10.74;nan;98013.25;4974027;28;20207;-69
2022/05/04 04:04:34;;;;;;;9.33;7.60;;;;;;;10.74;nan;98013.25;4974204;28;20674;-70
2022/05/04 04:07:01;;;;;;;9.70;8.70;;;;;;;10.83;nan;98006.63;4974277;28;20208;-69
2022/05/04 04:09:27;;;;;;;11.90;10.10;;;;;;;10.88;nan;98014.75;4974383;28;20671;-70
2022/05/04 04:11:54;;;;;;;10.23;9.23;;;;;;;10.88;nan;98018.22;4974477;28;20302;-70
2022/05/04 04:14:21;;;;;;;11.67;10.47;;;;;;;10.88;nan;98015.56;4974668;28;20302;-70
2022/05/04 04:16:47;;;;;;;11.87;9.80;;;;;;;10.92;nan;98018.59;4977944;28;20624;-70
2022/05/04 04:19:13;;;;;;;11.23;10.03;;;;;;;10.91;nan;98020.41;4977865;28;20702;-70
2022/05/04 04:21:52;;;;;;;11.27;10.17;;;;;;;10.95;nan;98021.59;4977920;28;20572;-70
2022/05/04 04:24:18;;;;;;;10.90;9.70;;;;;;;10.98;nan;98020.34;4978654;28;20188;-70
2022/05/04 04:26:45;;;;;;;10.50;8.47;;;;;;;10.94;nan;98024.47;4978098;28;20203;-69
2022/05/04 04:29:12;;;;;;;10.23;8.47;;;;;;;10.98;nan;98033.66;4978067;28;20204;-70
2022/05/04 04:31:38;;;;;;;10.50;9.43;;;;;;;10.97;nan;98029.38;4978125;28;20262;-70
2022/05/04 04:34:06;;;;;;;12.03;8.33;;;;;;;10.95;nan;98026.13;4977983;28;20209;-69
2022/05/04 04:36:32;;;;;;;9.03;8.23;;;;;;;10.95;nan;98026.13;4977900;28;20598;-70
2022/05/04 04:38:58;;;;;;;9.33;8.33;;;;;;;10.99;nan;98029.94;4977668;28;20238;-70
2022/05/04 04:41:25;;;;;;;12.03;8.07;;;;;;;11.04;nan;98032.78;4977713;28;20208;-69
2022/05/04 04:43:51;;;;;;;8.50;7.70;;;;;;;11.05;nan;98034.41;4977321;28;20218;-69
2022/05/04 04:46:17;;;;;;;9.77;8.80;;;;;;;11.08;nan;98036.59;4977057;28;20573;-69
2022/05/04 04:48:44;;;;;;;9.73;7.97;;;;;;;11.07;nan;98034.97;4976972;28;20710;-70
2022/05/04 04:51:10;;;;;;;9.53;8.17;;;;;;;11.09;nan;98040.91;4977571;28;20215;-70
2022/05/04 04:53:38;;;;;;;9.77;7.83;;;;;;;11.08;nan;98042.75;4977370;28;20207;-70
2022/05/04 04:56:05;;;;;;;9.23;8.33;;;;;;;11.10;nan;98040.66;4977166;28;20211;-70
2022/05/04 04:58:31;;;;;;;9.77;8.77;;;;;;;11.11;nan;98041.47;4977372;28;20235;-69
2022/05/04 05:00:58;;;;;;;11.77;10.17;;;;;;;11.17;nan;98040.59;4977081;28;20299;-70
2022/05/04 05:03:24;;;;;;;11.07;9.60;;;;;;;11.18;nan;98052.06;4976873;28;20214;-70
2022/05/04 05:05:51;;;;;;;13.43;8.97;;;;;;;11.18;nan;98043.03;4977272;28;20231;-69
2022/05/04 05:08:17;;;;;;;11.53;9.53;;;;;;;11.27;nan;98048.06;4977052;28;20235;-70
2022/05/04 05:10:43;;;;;;;11.53;9.33;;;;;;;11.27;nan;98046.22;4977221;28;20215;-69
2022/05/04 05:13:10;;;;;;;10.63;9.53;;;;;;;11.26;nan;98057.09;4976920;28;20208;-70
2022/05/04 05:18:22;;;;;;;10.60;9.53;;;;;;;11.36;nan;98063.50;4976465;28;20295;-69
2022/05/04 05:20:49;;;;;;;11.30;10.20;;;;;;;11.38;nan;98058.75;4976745;28;20234;-70
2022/05/04 05:23:16;;;;;;;10.70;9.63;;;;;;;11.39;nan;98060.38;4976407;28;20671;-69
2022/05/04 05:25:42;;;;;;;10.87;9.77;;;;;;;11.38;nan;98060.59;4976283;28;20208;-70
2022/05/04 05:28:09;;;;;;;10.80;9.70;;;;;;;11.43;nan;98060.75;4976620;28;20224;-69
2022/05/04 05:30:36;;;;;;;11.37;9.60;;;;;;;11.47;nan;98062.75;4976044;28;20204;-70
2022/05/04 05:33:02;;;;;;;10.10;9.20;;;;;;;11.46;nan;98063.78;4976358;28;20351;-70
2022/05/04 05:35:29;;;;;;;9.07;8.17;;;;;;;11.51;nan;98055.94;4976093;28;20659;-69
2022/05/04 05:37:56;;;;;;;9.00;8.20;;;;;;;11.52;nan;98056.75;4976148;28;20264;-69
2022/05/04 05:40:22;;;;;;;9.27;8.37;;;;;;;11.56;nan;98056.06;4976285;28;20243;-70
2022/05/04 05:42:49;;;;;;;9.97;9.00;;;;;;;11.61;nan;98058.09;4976303;28;20207;-69
2022/05/04 05:45:16;;;;;;;9.73;8.83;;;;;;;11.65;nan;98065.41;4976428;28;20219;-69
2022/05/04 05:47:42;;;;;;;9.60;8.60;;;;;;;11.72;nan;98060.00;4975997;28;20599;-69
2022/05/04 05:50:10;;;;;;;10.03;9.13;;;;;;;11.77;nan;98063.63;4976495;28;20202;-69
2022/05/04 05:52:36;;;;;;;10.60;9.70;;;;;;;11.85;nan;98059.81;4976874;28;20261;-69
2022/05/04 05:55:03;;;;;;;11.70;8.67;;;;;;;11.94;nan;98061.13;4976191;28;20208;-69
2022/05/04 05:57:29;;;;;;;9.07;8.23;;;;;;;11.85;nan;98062.47;4976252;28;20231;-69
2022/05/04 05:59:56;;;;;;;9.67;8.80;;;;;;;11.89;nan;98066.31;4975884;28;20239;-69
2022/05/04 06:02:27;;;;;;;9.43;8.53;;;;;;;11.99;nan;98064.72;4975544;28;20224;-69
2022/05/04 06:04:53;;;;;;;8.90;8.10;;;;;;;12.00;nan;98063.69;4975739;28;20639;-69
2022/05/04 06:07:19;;;;;;;9.43;8.50;;;;;;;12.11;nan;98075.44;4975615;28;20234;-69
2022/05/04 06:09:46;;;;;;;8.90;8.10;;;;;;;12.13;nan;98068.81;4975663;28;20267;-69
2022/05/04 06:12:12;;;;;;;10.00;9.00;;;;;;;12.17;nan;98069.16;4975982;28;20217;-69
2022/05/04 06:14:39;;;;;;;9.03;8.23;;;;;;;12.28;nan;98073.69;4975978;28;20573;-69
2022/05/04 06:17:05;;;;;;;9.77;8.77;;;;;;;12.19;nan;98072.41;4975517;28;20262;-69
2022/05/04 06:19:32;;;;;;;12.33;8.67;;;;;;;12.22;nan;98077.28;4975913;28;20233;-69
2022/05/04 06:21:59;;;;;;;9.70;8.70;;;;;;;12.26;nan;98073.94;4975736;28;20296;-69
2022/05/04 06:24:27;;;;;;;9.50;8.60;;;;;;;12.16;nan;98084.34;4975657;28;20243;-70
2022/05/04 06:26:53;;;;;;;9.53;8.67;;;;;;;12.16;nan;98084.34;4975814;28;20244;-70
2022/05/04 06:29:20;;;;;;;9.70;8.30;;;;;;;12.16;nan;98084.34;4975623;28;20202;-70
2022/05/04 06:34:30;;;;;;;9.43;8.60;;;;;;;12.19;nan;98086.56;4975807;28;20274;-70
2022/05/04 06:36:56;;;;;;;11.97;8.63;;;;;;;12.33;nan;98087.97;4975206;28;20577;-70
2022/05/04 06:39:23;;;;;;;11.23;9.17;;;;;;;12.25;nan;98084.84;4975638;28;20231;-70
2022/05/04 06:41:50;;;;;;;10.87;8.50;;;;;;;12.32;nan;98089.03;4975621;28;20215;-70
2022/05/04 06:44:16;;;;;;;8.57;7.87;;;;;;;12.47;nan;98091.22;4975355;28;20258;-70
2022/05/04 06:46:42;;;;;;;8.90;8.10;;;;;;;12.44;nan;98097.03;4974875;28;20207;-70
2022/05/04 06:49:10;;;;;;;10.97;8.73;;;;;;;12.38;nan;98101.44;4975048;28;20217;-70
2022/05/04 06:51:38;;;;;;;10.93;8.80;;;;;;;12.38;nan;98095.31;4975410;28;20218;-70
2022/05/04 06:54:04;;;;;;;9.53;8.37;;;;;;;12.34;nan;98094.13;4975462;28;20215;-70
2022/05/04 06:56:31;;;;;;;10.13;8.97;;;;;;;12.38;nan;98093.44;4975094;28;20208;-70
2022/05/04 06:58:57;;;;;;;10.60;9.37;;;;;;;12.40;nan;98102.03;4975149;28;20227;-70
2022/05/04 07:01:24;;;;;;;12.57;10.33;;;;;;;12.48;nan;98101.66;4974897;28;20670;-70
2022/05/04 07:03:50;;;;;;;13.37;9.83;;;;;;;12.54;nan;98099.94;4975281;28;20207;-70
2022/05/04 07:06:17;;;;;;;12.13;8.67;;;;;;;12.71;nan;98092.91;4975075;28;20211;-70
2022/05/04 07:08:43;;;;;;;14.60;9.80;;;;;;;12.69;nan;98098.47;4974785;28;20761;-70
2022/05/04 07:11:10;;;;;;;12.47;9.77;;;;;;;12.79;nan;98096.03;4974627;28;20204;-70
2022/05/04 07:13:36;;;;;;;10.93;9.00;;;;;;;12.85;nan;98099.63;4975001;28;20563;-71
2022/05/04 07:16:02;;;;;;;11.10;9.10;;;;;;;13.00;nan;98102.66;4974822;28;20211;-70
2022/05/04 07:18:29;;;;;;;10.37;9.13;;;;;;;13.05;nan;98098.25;4974626;28;20338;-70
2022/05/04 07:20:55;;;;;;;12.83;9.70;;;;;;;13.17;nan;98099.06;4974659;28;20259;-70
2022/05/04 07:23:22;;;;;;;10.47;9.23;;;;;;;13.30;nan;98106.00;4974404;28;20671;-70
2022/05/04 07:25:48;;;;;;;13.30;9.83;;;;;;;13.41;nan;98106.00;4974832;28;20218;-70
2022/05/04 07:28:15;;;;;;;12.93;9.67;;;;;;;13.56;nan;98092.94;4974383;28;20256;-70
2022/05/04 07:30:41;;;;;;;10.47;9.33;;;;;;;13.72;nan;98099.41;4974295;28;20266;-70
2022/05/04 07:33:08;;;;;;;12.43;9.20;;;;;;;13.77;nan;98092.31;4974475;28;20697;-71
2022/05/04 07:35:34;;;;;;;9.93;8.13;;;;;;;13.78;nan;98099.25;4974711;28;20208;-71
2022/05/04 07:38:01;;;;;;;9.83;7.50;;;;;;;13.97;nan;98105.25;4974690;28;20234;-71
2022/05/04 07:43:12;;;;;;;10.90;7.60;;;;;;;14.12;nan;98103.66;4974304;28;20174;-70
2022/05/04 07:45:38;;;;;;;8.73;7.33;;;;;;;14.31;nan;98102.44;4974644;28;20254;-70
2022/05/04 07:48:05;;;;;;;6.93;5.70;;;;;;;14.39;nan;98110.03;4974444;28;20267;-71
2022/05/04 07:50:31;;;;;;;6.50;5.07;;;;;;;14.50;nan;98108.34;4974493;28;20262;-70
2022/05/04 07:52:58;;;;;;;6.37;5.40;;;;;;;14.46;nan;98107.22;4974379;28;20207;-70
2022/05/04 07:55:25;;;;;;;6.23;5.00;;;;;;;14.50;nan;98109.16;4974411;28;20212;-71
2022/05/04 07:57:51;;;;;;;7.17;4.63;;;;;;;14.51;nan;98113.47;4974498;28;20238;-71
2022/05/04 08:05:43;;;;;;;7.67;5.83;;;;;;;14.68;nan;98113.47;4974271;28;20258;-70
2022/05/04 08:08:10;;;;;;;7.87;5.40;;;;;;;15.04;nan;98120.97;4974470;28;20238;-70
2022/05/04 08:10:36;;;;;;;6.13;3.80;;;;;;;14.79;nan;98120.63;4974436;28;20292;-71
2022/05/04 08:13:03;;;;;;;3.83;3.53;;;;;;;14.43;nan;98124.56;4974350;28;20219;-70
2022/05/04 08:15:30;;;;;;;4.73;3.50;;;;;;;14.71;nan;98116.50;4974388;28;20219;-70
2022/05/04 08:17:58;;;;;;;4.87;3.53;;;;;;;14.87;nan;98123.69;4973838;28;20317;-70
2022/05/04 08:20:26;;;;;;;4.70;3.83;;;;;;;15.21;nan;98124.47;4974682;28;20274;-70
2022/05/04 08:22:52;;;;;;;5.57;4.00;;;;;;;15.20;nan;98125.53;4974311;28;20328;-70
2022/05/04 08:25:19;;;;;;;5.37;4.03;;;;;;;14.64;nan;98133.72;4974204;28;20208;-70
2022/05/04 08:27:45;;;;;;;4.57;4.10;;;;;;;15.14;nan;98124.63;4974085;28;20334;-70
2022/05/04 08:30:12;;;;;;;5.00;4.13;;;;;;;15.08;nan;98128.31;4973872;28;20204;-70
2022/05/04 08:32:39;;;;;;;4.97;4.10;;;;;;;15.05;nan;98130.63;4974201;28;20215;-70
2022/05/04 08:35:06;;;;;;;4.20;3.80;;;;;;;15.22;nan;98131.44;4974257;28;20215;-70
2022/05/04 08:37:32;;;;;;;5.07;3.73;;;;;;;15.14;nan;98134.50;4974286;28;20236;-71
2022/05/04 08:39:59;;;;;;;4.30;3.90;;;;;;;15.07;nan;98140.03;4974105;28;20223;-70
2022/05/04 08:42:25;;;;;;;7.83;4.30;;;;;;;15.12;nan;98134.78;4973765;28;20667;-70
2022/05/04 08:44:58;;;;;;;4.83;4.30;;;;;;;15.10;nan;98130.75;4973976;28;20204;-70
2022/05/04 08:47:29;;;;;;;4.93;4.10;;;;;;;15.02;nan;98136.50;4973967;28;20238;-70
2022/05/04 08:49:56;;;;;;;5.00;4.03;;;;;;;14.83;nan;98135.13;4974181;28;20247;-71
2022/05/04 08:52:23;;;;;;;4.33;3.93;;;;;;;14.90;nan;98133.91;4974007;28;20208;-70
2022/05/04 08:54:50;;;;;;;5.33;3.93;;;;;;;14.78;nan;98135.84;4974176;28;20212;-70
2022/05/04 08:57:17;;;;;;;5.10;3.73;;;;;;;14.71;nan;98140.56;4973984;28;20228;-71
2022/05/04 08:59:44;;;;;;;4.57;3.63;;;;;;;14.74;nan;98140.06;4973864;28;20243;-70
2022/05/04 09:02:11;;;;;;;7.00;3.90;;;;;;;14.76;nan;98143.31;4976762;28;20208;-70
2022/05/04 09:04:43;;;;;;;4.93;3.60;;;;;;;14.66;nan;98137.00;4977525;28;20208;-70
2022/05/04 09:07:26;;;;;;;5.10;3.80;;;;;;;14.67;nan;98141.28;4976950;28;20232;-71
2022/05/04 09:09:53;;;;;;;4.20;3.70;;;;;;;14.69;nan;98126.59;4977207;28;20204;-70
2022/05/04 09:12:20;;;;;;;4.40;4.00;;;;;;;14.71;nan;98137.06;4977321;28;20209;-70
2022/05/04 09:14:47;;;;;;;5.90;3.97;;;;;;;14.73;nan;98130.41;4977192;28;20204;-70
2022/05/04 09:17:16;;;;;;;5.57;4.30;;;;;;;14.72;nan;98136.84;4976968;28;20347;-70
2022/05/04 09:20:45;;;;;;;5.67;4.40;;;;;;;14.59;nan;98131.78;4976854;28;20593;-70
2022/05/04 09:22:42;;;;;;;6.27;4.10;;;;;;;14.64;nan;98131.06;4976704;28;20634;-70
2022/05/04 09:25:17;;;;;;;5.63;4.60;;;;;;;14.53;nan;98131.94;4977102;28;20595;-70
2022/05/04 09:27:48;;;;;;;6.73;4.70;;;;;;;14.55;nan;98132.50;4976988;28;20231;-70
2022/05/04 09:30:15;;;;;;;4.90;4.50;;;;;;;14.50;nan;98133.25;4976975;28;20208;-70
2022/05/04 09:32:42;;;;;;;6.47;5.10;;;;;;;14.50;nan;98125.22;4977000;28;20219;-70
2022/05/04 09:35:13;;;;;;;8.77;6.13;;;;;;;14.48;nan;98121.97;4976992;28;20236;-70
2022/05/04 09:45:57;;;;;;;10.93;9.03;;;;;;;14.42;nan;98112.22;4976695;28;20179;-70
2022/05/04 09:48:34;;;;;;;9.50;8.30;;;;;;;14.73;nan;98111.69;4976346;28;20350;-70
2022/05/04 09:51:08;;;;;;;10.43;8.70;;;;;;;14.57;nan;98123.19;4976528;28;20200;-71
2022/05/04 09:53:36;;;;;;;10.23;9.10;;;;;;;14.68;nan;98124.16;4976522;28;20192;-70
2022/05/04 09:56:04;;;;;;;11.70;8.60;;;;;;;14.99;nan;98116.38;4976381;28;20286;-71
2022/05/04 09:58:31;;;;;;;9.70;8.80;;;;;;;15.26;nan;98117.31;4976376;28;20230;-71
2022/05/04 10:00:59;;;;;;;10.73;9.57;;;;;;;15.75;nan;98110.19;4976162;28;20238;-71
2022/05/04 10:03:26;;;;;;;9.83;9.00;;;;;;;15.99;nan;98117.72;4976451;28;20586;-70
2022/05/04 10:05:54;;;;;;;9.90;9.00;;;;;;;15.40;nan;98113.25;4976462;28;20208;-71
2022/05/04 10:08:21;;;;;;;11.73;10.63;;;;;;;15.61;nan;98109.75;4975825;28;20286;-71
2022/05/04 10:10:49;;;;;;;9.30;8.40;;;;;;;15.91;nan;98117.34;4976358;28;20291;-70
2022/05/04 10:13:18;;;;;;;11.00;10.17;;;;;;;16.10;nan;98108.72;4975093;28;20208;-71
2022/05/04 10:15:47;;;;;;;9.67;8.77;;;;;;;16.17;nan;98117.38;4976176;28;20207;-70
2022/05/04 10:18:21;;;;;;;10.70;9.60;;;;;;;16.58;nan;98113.22;4975934;28;20224;-70
2022/05/04 10:21:14;;;;;;;9.80;9.00;;;;;;;16.83;nan;98124.97;4975703;28;20227;-70
2022/05/04 10:23:45;;;;;;;9.30;8.40;;;;;;;16.59;nan;98118.34;4975782;28;20235;-70
2022/05/04 10:26:17;;;;;;;8.83;8.03;;;;;;;16.48;nan;98119.34;4974771;28;20196;-70
2022/05/04 10:30:30;;;;;;;9.27;8.47;;;;;;;16.25;nan;98111.56;4975740;28;20238;-70
2022/05/04 10:31:34;;;;;;;9.40;8.60;;;;;;;16.14;nan;98117.06;4975414;28;20299;-70
2022/05/04 10:34:03;;;;;;;8.40;7.70;;;;;;;16.37;nan;98100.69;4975733;28;20211;-70
2022/05/04 10:36:31;;;;;;;8.33;7.53;;;;;;;16.73;nan;98108.00;4975657;28;20208;-70
2022/05/04 10:39:02;;;;;;;9.20;8.30;;;;;;;16.77;nan;98098.34;4975655;28;20318;-70
2022/05/04 10:41:36;;;;;;;8.43;7.63;;;;;;;17.01;nan;98107.69;4975614;28;20216;-71
2022/05/04 10:44:04;;;;;;;9.17;8.30;;;;;;;17.00;nan;98095.28;4975266;28;20214;-70
2022/05/04 10:46:32;;;;;;;8.30;7.60;;;;;;;16.88;nan;98100.84;4975634;28;20230;-70
2022/05/04 10:49:04;;;;;;;9.47;8.17;;;;;;;16.87;nan;98093.88;4975234;28;20637;-71
2022/05/04 10:51:34;;;;;;;8.33;7.53;;;;;;;17.57;nan;98091.63;4975538;28;20192;-70
2022/05/04 10:54:02;;;;;;;9.20;8.33;;;;;;;17.65;nan;98090.31;4975475;28;20208;-70
2022/05/04 10:56:35;;;;;;;8.77;7.97;;;;;;;18.09;nan;98091.53;4975014;28;20223;-70
2022/05/04 10:59:01;;;;;;;6.47;5.93;;;;;;;18.14;nan;98088.88;4974890;28;20733;-70
2022/05/04 11:01:34;;;;;;;7.77;5.77;;;;;;;17.62;nan;98083.59;4975030;28;20326;-71
2022/05/04 11:04:13;;;;;;;6.13;5.63;;;;;;;17.91;nan;98073.19;4975189;28;20208;-71
2022/05/04 11:06:53;;;;;;;6.83;6.00;;;;;;;18.12;nan;98069.47;4974807;28;20215;-70
2022/05/04 11:09:21;;;;;;;7.33;6.23;;;;;;;18.33;nan;98065.78;4975065;28;20200;-70
2022/05/04 11:11:50;;;;;;;8.33;7.13;;;;;;;18.24;nan;98068.13;4974566;28;20745;-70
2022/05/04 11:14:19;;;;;;;6.63;6.00;;;;;;;18.67;nan;98064.97;4974739;28;20705;-70
2022/05/04 11:16:46;;;;;;;7.13;6.03;;;;;;;18.83;nan;98065.78;4974550;28;20620;-70
2022/05/04 11:19:14;;;;;;;8.23;6.03;;;;;;;18.71;nan;98060.66;4974538;28;20694;-70
2022/05/04 11:21:41;;;;;;;8.77;5.60;;;;;;;18.81;nan;98057.13;4974815;28;20223;-71
2022/05/04 11:24:10;;;;;;;5.80;5.20;;;;;;;18.96;nan;98060.63;4974119;28;20208;-70
2022/05/04 11:26:39;;;;;;;6.83;5.80;;;;;;;18.85;nan;98063.59;4974806;28;20274;-71
2022/05/04 11:29:10;;;;;;;7.67;4.40;;;;;;;19.07;nan;98059.53;4974787;28;20238;-70
2022/05/04 11:31:38;;;;;;;5.97;4.80;;;;;;;18.77;nan;98054.19;4974860;28;20207;-71
2022/05/04 11:34:04;;;;;;;4.00;3.70;;;;;;;18.63;nan;98061.19;4974319;28;20218;-71
2022/05/04 11:36:31;;;;;;;4.83;3.83;;;;;;;18.64;nan;98060.13;4974232;28;20694;-70
2022/05/04 11:38:57;;;;;;;4.67;3.97;;;;;;;18.77;nan;98054.19;4974696;28;20236;-70
2022/05/04 11:41:24;;;;;;;8.17;4.60;;;;;;;18.34;nan;98049.38;4974246;28;20220;-70
2022/05/04 11:43:50;;;;;;;6.00;4.13;;;;;;;18.06;nan;98051.72;4974418;28;20222;-70
2022/05/04 11:46:17;;;;;;;5.73;4.33;;;;;;;17.72;nan;98042.47;4974266;28;20211;-70
2022/05/04 11:48:47;;;;;;;5.43;3.63;;;;;;;17.60;nan;98041.91;4974517;28;20235;-70
2022/05/04 11:51:15;;;;;;;4.50;4.10;;;;;;;17.68;nan;98042.19;4974461;28;20270;-70
2022/05/04 11:53:42;;;;;;;4.17;3.70;;;;;;;17.79;nan;98043.84;4974562;28;20299;-70
2022/05/04 11:56:09;;;;;;;5.00;3.80;;;;;;;17.76;nan;98044.38;4974480;28;20203;-70
2022/05/04 11:58:38;;;;;;;4.80;3.90;;;;;;;17.58;nan;98046.72;4974283;28;20350;-70
2022/05/04 12:01:06;;;;;;;5.37;3.97;;;;;;;17.55;nan;98058.03;4974156;28;20715;-70
2022/05/04 12:03:35;;;;;;;4.00;3.70;;;;;;;17.65;nan;98048.09;4974424;28;20215;-70
2022/05/04 12:06:05;;;;;;;4.13;3.47;;;;;;;17.72;nan;98050.53;4974121;28;20204;-71
2022/05/04 12:08:32;;;;;;;4.33;3.90;;;;;;;17.76;nan;98044.38;4974430;28;20583;-70
2022/05/04 12:11:00;;;;;;;5.00;4.50;;;;;;;17.85;nan;98042.78;4973990;28;20283;-70
2022/05/04 12:13:28;;;;;;;5.73;4.10;;;;;;;18.07;nan;98039.88;4974840;28;20212;-70
2022/05/04 12:15:58;;;;;;;5.10;4.60;;;;;;;18.45;nan;98040.19;4973958;28;20219;-70
2022/05/04 12:18:32;;;;;;;4.90;4.50;;;;;;;18.39;nan;98045.84;4974278;28;20228;-70
2022/05/04 12:21:06;;;;;;;4.87;4.17;;;;;;;18.23;nan;98034.22;4974139;28;20211;-70